createdAt,value
2017-05-29T00:02:02.467Z,14.80
2017-05-29T00:04:30.191Z,14.80
2017-05-29T00:06:58.380Z,14.90
2017-05-29T00:09:26.114Z,14.80
2017-05-29T00:11:53.854Z,14.90
2017-05-29T00:14:21.688Z,15.10
2017-05-29T00:16:49.428Z,15.10
2017-05-29T00:19:17.191Z,15.20
2017-05-29T00:21:44.933Z,15.20
2017-05-29T00:24:12.669Z,15.10
2017-05-29T00:26:40.428Z,15.10
2017-05-29T00:29:08.158Z,15.10
2017-05-29T00:31:35.946Z,14.90
2017-05-29T00:34:03.676Z,14.90
2017-05-29T00:36:31.421Z,14.90
2017-05-29T00:38:59.197Z,14.90
2017-05-29T00:41:26.931Z,15.00
2017-05-29T00:43:54.832Z,15.00
2017-05-29T00:46:22.570Z,14.90
2017-05-29T00:48:50.300Z,14.80
2017-05-29T00:51:18.062Z,14.80
2017-05-29T00:53:46.752Z,14.80
2017-05-29T00:56:14.515Z,14.80
2017-05-29T00:58:42.317Z,14.80
2017-05-29T01:01:10.106Z,14.90
2017-05-29T01:03:37.833Z,14.90
2017-05-29T01:06:05.572Z,14.70
2017-05-29T01:08:33.332Z,14.70
2017-05-29T01:11:01.063Z,14.80
2017-05-29T01:13:28.213Z,14.80
2017-05-29T01:15:55.946Z,14.80
2017-05-29T01:18:23.677Z,14.70
2017-05-29T01:20:51.443Z,14.70
2017-05-29T01:23:19.178Z,14.60
2017-05-29T01:25:46.931Z,14.60
2017-05-29T01:28:14.765Z,14.60
2017-05-29T01:30:42.536Z,14.60
2017-05-29T01:33:10.276Z,14.70
2017-05-29T01:35:38.009Z,14.70
2017-05-29T01:38:05.780Z,14.80
2017-05-29T01:40:33.525Z,14.80
2017-05-29T01:43:01.281Z,14.80
2017-05-29T01:45:29.068Z,14.80
2017-05-29T01:47:56.856Z,14.90
2017-05-29T01:50:24.596Z,14.90
2017-05-29T01:52:52.324Z,14.90
2017-05-29T01:55:20.093Z,15.00
2017-05-29T01:57:47.828Z,15.10
2017-05-29T02:00:15.615Z,15.00
2017-05-29T02:02:43.358Z,14.90
2017-05-29T02:05:11.135Z,14.90
2017-05-29T02:07:38.887Z,14.90
2017-05-29T02:10:06.622Z,14.90
2017-05-29T02:12:34.392Z,14.80
2017-05-29T02:15:02.150Z,14.70
2017-05-29T02:17:29.915Z,14.80
2017-05-29T02:19:57.703Z,14.80
2017-05-29T02:22:25.487Z,14.80
2017-05-29T02:24:53.241Z,14.70
2017-05-29T02:27:20.973Z,14.70
2017-05-29T02:29:48.737Z,14.80
2017-05-29T02:32:16.468Z,14.80
2017-05-29T02:34:44.253Z,14.80
2017-05-29T02:37:11.988Z,14.80
2017-05-29T02:39:39.720Z,14.80
2017-05-29T02:42:07.484Z,14.80
2017-05-29T02:44:35.230Z,14.80
2017-05-29T02:47:02.985Z,14.80
2017-05-29T02:49:30.716Z,14.90
2017-05-29T02:51:58.500Z,14.90
2017-05-29T02:54:26.242Z,14.90
2017-05-29T02:56:53.223Z,14.90
2017-05-29T02:59:20.990Z,15.00
2017-05-29T03:01:48.719Z,15.00
2017-05-29T03:04:16.477Z,15.00
2017-05-29T03:06:44.211Z,14.90
2017-05-29T03:09:11.986Z,15.00
2017-05-29T03:11:39.721Z,15.00
2017-05-29T03:14:07.451Z,15.10
2017-05-29T03:16:35.212Z,15.20
2017-05-29T03:19:02.942Z,15.10
2017-05-29T03:21:29.945Z,15.10
2017-05-29T03:23:57.688Z,15.00
2017-05-29T03:26:25.476Z,15.00
2017-05-29T03:28:53.241Z,15.00
2017-05-29T03:31:20.249Z,15.00
2017-05-29T03:33:47.985Z,15.00
2017-05-29T03:36:15.733Z,15.00
2017-05-29T03:38:43.497Z,15.00
2017-05-29T03:41:11.277Z,15.00
2017-05-29T03:43:39.050Z,15.10
2017-05-29T03:46:06.796Z,15.10
2017-05-29T03:48:34.539Z,15.10
2017-05-29T03:51:02.329Z,15.10
2017-05-29T03:53:30.092Z,15.10
2017-05-29T03:55:57.864Z,15.10
2017-05-29T03:58:25.597Z,15.10
2017-05-29T04:00:53.358Z,15.20
2017-05-29T04:03:21.107Z,15.30
2017-05-29T04:05:48.871Z,15.30
2017-05-29T04:08:16.609Z,15.30
2017-05-29T04:10:44.392Z,15.30
2017-05-29T04:13:12.117Z,15.20
2017-05-29T04:15:39.862Z,15.20
2017-05-29T04:18:07.628Z,15.10
2017-05-29T04:20:35.367Z,15.00
2017-05-29T04:23:03.134Z,15.10
2017-05-29T04:25:30.880Z,15.10
2017-05-29T04:27:58.664Z,15.10
2017-05-29T04:30:26.404Z,15.10
2017-05-29T04:32:54.137Z,15.20
2017-05-29T04:35:21.917Z,15.30
2017-05-29T04:37:49.655Z,15.40
2017-05-29T04:40:17.412Z,15.30
2017-05-29T04:42:45.143Z,15.40
2017-05-29T04:45:12.912Z,15.40
2017-05-29T04:47:40.672Z,15.40
2017-05-29T04:50:08.399Z,15.30
2017-05-29T04:52:36.163Z,15.30
2017-05-29T04:55:03.918Z,15.30
2017-05-29T04:57:31.707Z,15.40
2017-05-29T04:59:59.456Z,15.40
2017-05-29T05:02:27.192Z,15.50
2017-05-29T05:04:54.976Z,15.40
2017-05-29T05:07:22.716Z,15.40
2017-05-29T05:09:50.872Z,15.40
2017-05-29T05:12:18.611Z,15.50
2017-05-29T05:14:46.373Z,15.60
2017-05-29T05:17:14.140Z,15.70
2017-05-29T05:19:41.880Z,15.70
2017-05-29T05:22:09.654Z,15.70
2017-05-29T05:24:37.396Z,15.70
2017-05-29T05:27:05.138Z,15.70
2017-05-29T05:29:32.924Z,15.70
2017-05-29T05:32:00.666Z,15.40
2017-05-29T05:34:28.460Z,15.10
2017-05-29T05:36:55.455Z,15.20
2017-05-29T05:39:23.211Z,14.70
2017-05-29T05:41:50.952Z,14.80
2017-05-29T05:44:18.743Z,14.90
2017-05-29T05:46:46.479Z,14.80
2017-05-29T05:49:14.218Z,14.70
2017-05-29T05:51:41.980Z,14.60
2017-05-29T05:54:09.721Z,14.80
2017-05-29T05:56:37.488Z,14.80
2017-05-29T05:59:05.243Z,15.00
2017-05-29T06:01:33.016Z,15.00
2017-05-29T06:04:00.781Z,15.10
2017-05-29T06:06:28.516Z,15.20
2017-05-29T06:08:56.280Z,15.30
2017-05-29T06:11:24.020Z,15.30
2017-05-29T06:13:51.785Z,15.20
2017-05-29T06:16:19.541Z,15.40
2017-05-29T06:18:47.306Z,15.30
2017-05-29T06:21:15.047Z,15.50
2017-05-29T06:23:42.829Z,15.50
2017-05-29T06:26:10.564Z,15.30
2017-05-29T06:28:38.305Z,15.20
2017-05-29T06:31:06.058Z,15.10
2017-05-29T06:33:33.800Z,15.00
2017-05-29T06:36:01.556Z,15.00
2017-05-29T06:38:29.315Z,15.00
2017-05-29T06:40:57.095Z,15.10
2017-05-29T06:43:24.842Z,15.20
2017-05-29T06:45:52.581Z,15.30
2017-05-29T06:48:20.369Z,15.30
2017-05-29T06:50:48.105Z,15.40
2017-05-29T06:53:15.881Z,15.70
2017-05-29T06:55:43.626Z,16.00
2017-05-29T06:58:11.385Z,15.80
2017-05-29T07:00:42.609Z,15.60
2017-05-29T07:03:10.397Z,15.40
2017-05-29T07:05:38.160Z,15.40
2017-05-29T07:08:05.954Z,15.40
2017-05-29T07:10:33.720Z,15.20
2017-05-29T07:13:01.493Z,15.30
2017-05-29T07:15:29.258Z,15.20
2017-05-29T07:17:56.998Z,15.50
2017-05-29T07:20:24.748Z,15.70
2017-05-29T07:22:52.501Z,15.70
2017-05-29T07:25:20.244Z,15.70
2017-05-29T07:27:48.009Z,15.70
2017-05-29T07:30:15.741Z,15.80
2017-05-29T07:32:43.473Z,15.80
2017-05-29T07:35:11.232Z,16.00
2017-05-29T07:37:38.971Z,16.10
2017-05-29T07:40:06.725Z,16.20
2017-05-29T07:42:34.467Z,15.80
2017-05-29T07:45:02.264Z,15.70
2017-05-29T07:47:30.001Z,15.80
2017-05-29T07:49:57.742Z,15.80
2017-05-29T07:52:25.500Z,15.90
2017-05-29T07:54:53.236Z,15.80
2017-05-29T07:57:21.017Z,15.80
2017-05-29T07:59:48.748Z,15.90
2017-05-29T08:02:16.511Z,16.00
2017-05-29T08:04:44.277Z,15.80
2017-05-29T08:07:12.004Z,16.00
2017-05-29T08:09:39.766Z,15.90
2017-05-29T08:12:07.519Z,15.90
2017-05-29T08:14:35.297Z,16.10
2017-05-29T08:17:03.024Z,16.20
2017-05-29T08:19:30.762Z,16.10
2017-05-29T08:21:58.524Z,15.90
2017-05-29T08:24:26.253Z,15.80
2017-05-29T08:26:54.012Z,15.80
2017-05-29T08:29:21.748Z,15.80
2017-05-29T08:31:49.504Z,15.90
2017-05-29T08:34:17.243Z,16.00
2017-05-29T08:36:45.073Z,15.70
2017-05-29T08:39:12.803Z,15.70
2017-05-29T08:41:40.540Z,15.90
2017-05-29T08:44:08.325Z,16.20
2017-05-29T08:46:36.088Z,16.10
2017-05-29T08:49:04.108Z,16.20
2017-05-29T08:51:31.843Z,16.50
2017-05-29T08:53:59.568Z,16.70
2017-05-29T08:56:27.325Z,17.00
2017-05-29T08:58:55.060Z,17.20
2017-05-29T09:01:22.819Z,17.40
2017-05-29T09:03:50.546Z,17.40
2017-05-29T09:06:18.328Z,17.30
2017-05-29T09:08:46.052Z,17.40
2017-05-29T09:11:13.788Z,17.30
2017-05-29T09:13:41.544Z,16.80
2017-05-29T09:16:09.316Z,16.70
2017-05-29T09:18:37.064Z,16.70
2017-05-29T09:21:04.810Z,17.30
2017-05-29T09:23:32.581Z,17.70
2017-05-29T09:26:00.317Z,17.90
2017-05-29T09:28:28.059Z,17.50
2017-05-29T09:30:55.822Z,17.30
2017-05-29T09:33:23.577Z,17.60
2017-05-29T09:35:51.349Z,17.50
2017-05-29T09:38:19.076Z,17.60
2017-05-29T09:40:46.861Z,18.10
2017-05-29T09:43:14.629Z,18.50
2017-05-29T09:45:42.360Z,19.00
2017-05-29T09:48:10.136Z,18.80
2017-05-29T09:50:37.993Z,18.60
2017-05-29T09:53:05.772Z,18.90
2017-05-29T09:55:33.508Z,19.60
2017-05-29T09:58:01.259Z,20.00
2017-05-29T10:00:29.011Z,19.20
2017-05-29T10:02:56.759Z,19.70
2017-05-29T10:05:24.881Z,20.20
2017-05-29T10:07:52.657Z,20.70
2017-05-29T10:10:20.842Z,20.90
2017-05-29T10:12:48.596Z,20.70
2017-05-29T10:15:16.326Z,20.10
2017-05-29T10:17:44.396Z,20.00
2017-05-29T10:20:12.133Z,20.60
2017-05-29T10:22:39.856Z,20.90
2017-05-29T10:25:07.628Z,20.60
2017-05-29T10:27:35.359Z,20.30
2017-05-29T10:30:03.115Z,20.50
2017-05-29T10:32:30.843Z,20.80
2017-05-29T10:34:58.885Z,21.20
2017-05-29T10:37:26.633Z,21.50
2017-05-29T10:39:54.417Z,21.40
2017-05-29T10:42:22.189Z,21.00
2017-05-29T10:44:49.916Z,21.20
2017-05-29T10:47:17.668Z,21.20
2017-05-29T10:49:45.393Z,21.20
2017-05-29T10:52:13.214Z,21.70
2017-05-29T10:54:41.307Z,21.80
2017-05-29T10:57:09.044Z,22.10
2017-05-29T10:59:36.786Z,22.30
2017-05-29T11:02:04.608Z,22.70
2017-05-29T11:04:32.344Z,23.00
2017-05-29T11:07:00.103Z,23.00
2017-05-29T11:09:27.832Z,23.00
2017-05-29T11:11:55.612Z,22.40
2017-05-29T11:14:23.331Z,22.20
2017-05-29T11:16:51.109Z,22.30
2017-05-29T11:19:18.841Z,22.40
2017-05-29T11:21:46.600Z,22.30
2017-05-29T11:24:14.382Z,22.70
2017-05-29T11:26:42.155Z,22.50
2017-05-29T11:29:09.159Z,22.50
2017-05-29T11:31:37.238Z,22.80
2017-05-29T11:34:04.983Z,22.60
2017-05-29T11:36:32.736Z,22.50
2017-05-29T11:39:00.492Z,22.40
2017-05-29T11:41:28.212Z,22.00
2017-05-29T11:43:55.977Z,22.20
2017-05-29T11:46:23.700Z,22.80
2017-05-29T11:48:51.432Z,22.70
2017-05-29T11:51:19.257Z,22.70
2017-05-29T11:53:46.995Z,23.20
2017-05-29T11:56:14.749Z,23.10
2017-05-29T11:58:42.521Z,23.50
2017-05-29T12:01:10.327Z,23.20
2017-05-29T12:03:38.063Z,23.20
2017-05-29T12:06:05.840Z,22.90
2017-05-29T12:08:33.600Z,22.40
2017-05-29T12:11:01.349Z,22.10
2017-05-29T12:13:29.121Z,22.30
2017-05-29T12:15:56.915Z,22.00
2017-05-29T12:18:24.648Z,22.10
2017-05-29T12:20:52.408Z,21.90
2017-05-29T12:23:20.147Z,22.20
2017-05-29T12:25:48.083Z,22.60
2017-05-29T12:28:15.813Z,23.20
2017-05-29T12:30:43.564Z,23.30
2017-05-29T12:33:11.344Z,23.50
2017-05-29T12:35:39.072Z,23.20
2017-05-29T12:38:06.796Z,23.10
2017-05-29T12:40:34.553Z,23.30
2017-05-29T12:43:02.280Z,23.50
2017-05-29T12:45:30.049Z,24.10
2017-05-29T12:47:57.775Z,24.50
2017-05-29T12:50:25.507Z,24.90
2017-05-29T12:52:53.257Z,25.00
2017-05-29T12:55:20.992Z,25.20
2017-05-29T12:57:48.760Z,25.20
2017-05-29T13:00:16.491Z,25.80
2017-05-29T13:02:44.388Z,25.60
2017-05-29T13:05:12.117Z,25.40
2017-05-29T13:07:39.852Z,25.30
2017-05-29T13:10:07.606Z,25.70
2017-05-29T13:12:35.336Z,26.10
2017-05-29T13:15:03.395Z,25.90
2017-05-29T13:17:31.128Z,25.90
2017-05-29T13:19:59.289Z,25.90
2017-05-29T13:22:27.016Z,25.80
2017-05-29T13:24:54.748Z,28.40
2017-05-29T13:27:22.508Z,31.10
2017-05-29T13:29:50.250Z,31.60
2017-05-29T13:32:18.004Z,32.90
2017-05-29T13:34:45.765Z,32.20
2017-05-29T13:37:13.519Z,31.20
2017-05-29T13:39:41.272Z,31.00
2017-05-29T13:42:09.041Z,31.00
2017-05-29T13:44:36.789Z,32.30
2017-05-29T13:47:04.583Z,33.90
2017-05-29T13:49:32.313Z,34.60
2017-05-29T13:52:00.071Z,35.20
2017-05-29T13:54:27.802Z,36.70
2017-05-29T13:56:55.549Z,37.50
2017-05-29T13:59:23.276Z,36.50
2017-05-29T14:01:51.103Z,35.40
2017-05-29T14:04:18.933Z,35.70
2017-05-29T14:06:46.672Z,35.40
2017-05-29T14:09:14.425Z,35.70
2017-05-29T14:11:42.167Z,33.70
2017-05-29T14:14:09.961Z,32.20
2017-05-29T14:16:36.965Z,32.00
2017-05-29T14:19:04.727Z,35.40
2017-05-29T14:21:32.491Z,36.60
2017-05-29T14:24:00.232Z,38.40
2017-05-29T14:26:27.984Z,38.50
2017-05-29T14:28:55.000Z,38.50
2017-05-29T14:31:23.732Z,38.40
2017-05-29T14:33:51.504Z,38.70
2017-05-29T14:36:19.308Z,38.10
2017-05-29T14:38:47.087Z,38.90
2017-05-29T14:41:14.888Z,40.00
2017-05-29T14:43:42.665Z,39.80
2017-05-29T14:46:09.662Z,39.80
2017-05-29T14:48:36.677Z,40.50
2017-05-29T14:51:04.440Z,39.30
2017-05-29T14:53:32.168Z,38.20
2017-05-29T14:55:59.932Z,38.80
2017-05-29T14:58:27.668Z,39.40
2017-05-29T15:00:55.445Z,39.40
2017-05-29T15:03:24.017Z,39.70
2017-05-29T15:05:51.786Z,38.70
2017-05-29T15:08:19.532Z,39.10
2017-05-29T15:10:46.524Z,39.00
2017-05-29T15:13:14.285Z,36.90
2017-05-29T15:15:41.303Z,36.90
2017-05-29T15:18:08.288Z,35.10
2017-05-29T15:20:36.552Z,32.40
2017-05-29T15:23:04.332Z,33.30
2017-05-29T15:25:32.107Z,33.50
2017-05-29T15:27:59.072Z,33.50
2017-05-29T15:30:27.392Z,32.00
2017-05-29T15:32:55.136Z,33.70
2017-05-29T15:35:22.971Z,35.00
2017-05-29T15:37:50.713Z,35.90
2017-05-29T15:40:18.999Z,36.60
2017-05-29T15:42:46.768Z,37.00
2017-05-29T15:45:14.532Z,37.30
2017-05-29T15:47:42.301Z,36.40
2017-05-29T15:50:10.061Z,35.90
2017-05-29T15:52:37.819Z,36.80
2017-05-29T15:55:05.552Z,37.00
2017-05-29T15:57:33.299Z,36.30
2017-05-29T16:00:01.032Z,36.00
2017-05-29T16:02:28.808Z,33.40
2017-05-29T16:04:56.551Z,33.90
2017-05-29T16:07:23.552Z,33.90
2017-05-29T16:09:52.103Z,31.70
2017-05-29T16:12:19.878Z,32.40
2017-05-29T16:14:47.613Z,31.70
2017-05-29T16:17:15.361Z,32.10
2017-05-29T16:19:43.129Z,29.90
2017-05-29T16:22:10.868Z,28.70
2017-05-29T16:24:38.633Z,28.00
2017-05-29T16:27:06.372Z,27.80
2017-05-29T16:29:34.122Z,27.90
2017-05-29T16:32:01.889Z,27.60
2017-05-29T16:34:29.661Z,27.80
2017-05-29T16:36:57.397Z,29.00
2017-05-29T16:39:25.183Z,27.90
2017-05-29T16:41:52.917Z,28.30
2017-05-29T16:44:20.658Z,29.20
2017-05-29T16:46:47.671Z,29.20
2017-05-29T16:49:14.688Z,28.90
2017-05-29T16:51:41.693Z,29.00
2017-05-29T16:54:09.444Z,28.20
2017-05-29T16:56:37.217Z,28.70
2017-05-29T16:59:04.970Z,28.10
2017-05-29T17:01:31.948Z,28.10
2017-05-29T17:03:59.730Z,28.50
2017-05-29T17:06:27.459Z,26.90
2017-05-29T17:08:55.258Z,25.30
2017-05-29T17:11:22.989Z,24.40
2017-05-29T17:13:50.729Z,23.60
2017-05-29T17:16:17.729Z,23.50
2017-05-29T17:18:45.464Z,22.80
2017-05-29T17:21:13.248Z,22.50
2017-05-29T17:23:40.986Z,22.50
2017-05-29T17:26:08.719Z,22.20
2017-05-29T17:28:35.795Z,22.10
2017-05-29T17:31:04.514Z,21.70
2017-05-29T17:33:32.532Z,21.70
2017-05-29T17:36:00.275Z,21.70
2017-05-29T17:38:28.044Z,21.70
2017-05-29T17:40:55.830Z,21.80
2017-05-29T17:43:23.570Z,21.90
2017-05-29T17:45:51.334Z,22.00
2017-05-29T17:48:19.084Z,22.10
2017-05-29T17:50:46.857Z,22.10
2017-05-29T17:53:14.628Z,22.00
2017-05-29T17:55:42.393Z,21.90
2017-05-29T17:58:09.405Z,21.80
2017-05-29T18:00:37.203Z,21.70
2017-05-29T18:03:04.952Z,21.50
2017-05-29T18:05:32.692Z,21.40
2017-05-29T18:08:00.452Z,21.20
2017-05-29T18:10:28.222Z,21.20
2017-05-29T18:12:55.953Z,21.30
2017-05-29T18:15:23.730Z,21.20
2017-05-29T18:17:51.461Z,20.90
2017-05-29T18:20:19.200Z,20.70
2017-05-29T18:22:46.960Z,20.50
2017-05-29T18:25:14.721Z,20.50
2017-05-29T18:27:42.493Z,20.40
2017-05-29T18:30:10.225Z,20.40
2017-05-29T18:32:38.008Z,20.30
2017-05-29T18:35:05.758Z,20.20
2017-05-29T18:37:33.492Z,20.10
2017-05-29T18:40:01.254Z,20.00
2017-05-29T18:42:28.988Z,19.90
2017-05-29T18:44:56.752Z,19.90
2017-05-29T18:47:24.485Z,19.60
2017-05-29T18:49:52.819Z,19.40
2017-05-29T18:52:20.572Z,19.20
2017-05-29T18:54:48.304Z,19.10
2017-05-29T18:57:16.081Z,19.10
2017-05-29T18:59:43.816Z,18.70
2017-05-29T19:02:11.568Z,18.60
2017-05-29T19:04:39.323Z,18.50
2017-05-29T19:07:07.095Z,18.30
2017-05-29T19:09:34.836Z,18.20
2017-05-29T19:12:01.808Z,18.10
2017-05-29T19:14:29.569Z,18.10
2017-05-29T19:16:57.322Z,18.10
2017-05-29T19:19:25.084Z,18.00
2017-05-29T19:21:52.816Z,18.00
2017-05-29T19:24:20.590Z,17.90
2017-05-29T19:26:48.326Z,17.80
2017-05-29T19:29:16.107Z,17.70
2017-05-29T19:31:43.853Z,17.70
2017-05-29T19:34:11.779Z,17.70
2017-05-29T19:36:39.527Z,17.70
2017-05-29T19:39:07.268Z,17.60
2017-05-29T19:41:35.040Z,17.50
2017-05-29T19:44:02.781Z,17.30
2017-05-29T19:46:29.753Z,17.30
2017-05-29T19:48:57.520Z,17.30
2017-05-29T19:51:25.259Z,17.20
2017-05-29T19:53:53.018Z,17.10
2017-05-29T19:56:20.768Z,17.00
2017-05-29T19:58:48.692Z,17.00
2017-05-29T20:01:16.487Z,17.00
2017-05-29T20:03:44.256Z,17.00
2017-05-29T20:06:12.018Z,17.00
2017-05-29T20:08:39.793Z,17.10
2017-05-29T20:11:07.525Z,17.10
2017-05-29T20:13:35.292Z,17.30
2017-05-29T20:16:03.028Z,17.20
2017-05-29T20:18:30.770Z,17.20
2017-05-29T20:20:58.545Z,17.20
2017-05-29T20:23:26.276Z,17.20
2017-05-29T20:25:54.070Z,17.20
2017-05-29T20:28:21.804Z,17.10
2017-05-29T20:30:49.576Z,17.00
2017-05-29T20:33:17.336Z,17.00
2017-05-29T20:35:45.093Z,17.00
2017-05-29T20:38:12.876Z,17.10
2017-05-29T20:40:40.625Z,17.10
2017-05-29T20:43:08.392Z,17.20
2017-05-29T20:45:36.125Z,17.10
2017-05-29T20:48:03.897Z,17.10
2017-05-29T20:50:31.645Z,17.10
2017-05-29T20:52:59.400Z,17.00
2017-05-29T20:55:27.160Z,17.00
2017-05-29T20:57:54.901Z,16.90
2017-05-29T21:00:22.698Z,16.80
2017-05-29T21:02:50.469Z,16.70
2017-05-29T21:05:18.218Z,16.60
2017-05-29T21:07:46.397Z,16.60
2017-05-29T21:10:14.137Z,16.60
2017-05-29T21:12:41.871Z,16.60
2017-05-29T21:15:09.630Z,16.60
2017-05-29T21:17:37.416Z,16.50
2017-05-29T21:20:05.148Z,16.50
2017-05-29T21:22:32.885Z,16.50
2017-05-29T21:25:00.656Z,16.50
2017-05-29T21:27:28.392Z,16.50
2017-05-29T21:29:56.153Z,16.50
2017-05-29T21:32:23.884Z,16.50
2017-05-29T21:34:51.645Z,16.50
2017-05-29T21:37:19.388Z,16.40
2017-05-29T21:39:47.149Z,16.40
2017-05-29T21:42:14.894Z,16.40
2017-05-29T21:44:42.645Z,16.30
2017-05-29T21:47:10.481Z,16.30
2017-05-29T21:49:38.243Z,16.30
2017-05-29T21:52:05.974Z,16.30
2017-05-29T21:54:33.724Z,16.40
2017-05-29T21:57:01.479Z,16.40
2017-05-29T21:59:29.285Z,16.50
2017-05-29T22:01:57.031Z,16.50
2017-05-29T22:04:24.769Z,16.70
2017-05-29T22:06:51.876Z,16.60
2017-05-29T22:09:19.640Z,16.70
2017-05-29T22:11:47.096Z,16.70
2017-05-29T22:14:14.877Z,16.80
2017-05-29T22:16:42.644Z,16.70
2017-05-29T22:19:10.377Z,16.60
2017-05-29T22:21:38.151Z,16.40
2017-05-29T22:24:05.941Z,16.50
2017-05-29T22:26:33.684Z,16.50
2017-05-29T22:29:01.441Z,16.50
2017-05-29T22:31:29.176Z,16.50
2017-05-29T22:33:56.932Z,16.50
2017-05-29T22:36:24.672Z,16.50
2017-05-29T22:38:52.453Z,16.60
2017-05-29T22:41:20.187Z,16.60
2017-05-29T22:43:47.953Z,16.60
2017-05-29T22:46:15.709Z,16.60
2017-05-29T22:48:43.449Z,16.50
2017-05-29T22:51:11.207Z,16.50
2017-05-29T22:53:38.945Z,16.50
2017-05-29T22:56:06.705Z,16.60
2017-05-29T22:58:34.435Z,16.50
2017-05-29T23:01:02.192Z,16.50
2017-05-29T23:03:29.927Z,16.40
2017-05-29T23:05:57.705Z,16.40
2017-05-29T23:08:25.443Z,16.30
2017-05-29T23:10:52.409Z,16.30
2017-05-29T23:13:20.165Z,16.20
2017-05-29T23:15:47.929Z,16.20
2017-05-29T23:18:15.684Z,16.10
2017-05-29T23:20:43.419Z,16.00
2017-05-29T23:23:11.219Z,15.90
2017-05-29T23:25:38.953Z,15.90
2017-05-29T23:28:06.716Z,15.80
2017-05-29T23:30:34.449Z,15.70
2017-05-29T23:33:02.217Z,15.70
2017-05-29T23:35:29.948Z,15.70
2017-05-29T23:37:57.720Z,15.60
2017-05-29T23:40:25.464Z,15.60
2017-05-29T23:42:53.198Z,15.50
2017-05-29T23:45:21.290Z,15.50
2017-05-29T23:47:49.073Z,15.40
2017-05-29T23:50:16.816Z,15.40
2017-05-29T23:52:44.626Z,15.30
2017-05-29T23:55:12.364Z,15.30
2017-05-29T23:57:40.126Z,15.20
